createdAt,value
2022-11-05T00:02:13.818Z,10.88
2022-11-05T00:05:40.593Z,10.92
2022-11-05T00:09:18.726Z,10.89
2022-11-05T00:12:44.954Z,10.90
2022-11-05T00:16:11.554Z,10.90
2022-11-05T00:19:23.628Z,10.90
2022-11-05T00:22:50.202Z,10.83
2022-11-05T00:26:04.567Z,10.91
2022-11-05T00:29:16.835Z,10.84
2022-11-05T00:32:29.040Z,10.79
2022-11-05T00:35:41.188Z,10.81
2022-11-05T00:38:53.279Z,10.79
2022-11-05T00:42:19.754Z,10.81
2022-11-05T00:45:32.388Z,10.78
2022-11-05T00:48:58.846Z,10.72
2022-11-05T00:52:21.947Z,10.66
2022-11-05T00:55:39.505Z,10.61
2022-11-05T00:58:51.522Z,10.51
2022-11-05T01:02:03.835Z,10.56
2022-11-05T01:05:17.201Z,10.58
2022-11-05T01:08:32.119Z,10.60
2022-11-05T01:11:46.085Z,10.64
2022-11-05T01:14:58.296Z,10.67
2022-11-05T01:18:11.316Z,10.66
2022-11-05T01:21:23.409Z,10.56
2022-11-05T01:24:35.879Z,10.32
2022-11-05T01:27:48.278Z,10.51
2022-11-05T01:31:04.550Z,10.43
2022-11-05T01:34:16.636Z,10.52
2022-11-05T01:37:28.796Z,10.54
2022-11-05T01:40:41.504Z,10.51
2022-11-05T01:43:59.226Z,10.45
2022-11-05T01:47:11.763Z,10.44
2022-11-05T01:50:43.852Z,10.43
2022-11-05T01:54:00.080Z,10.40
2022-11-05T01:57:16.008Z,10.43
2022-11-05T02:00:28.165Z,10.44
2022-11-05T02:03:41.098Z,10.39
2022-11-05T02:06:54.271Z,10.32
2022-11-05T02:10:10.845Z,10.42
2022-11-05T02:13:23.072Z,10.42
2022-11-05T02:16:46.236Z,10.44
2022-11-05T02:20:36.004Z,10.48
2022-11-05T02:24:36.168Z,10.47
2022-11-05T02:28:23.479Z,10.50
2022-11-05T02:31:40.205Z,10.54
2022-11-05T02:35:00.285Z,10.55
2022-11-05T02:38:17.719Z,10.58
2022-11-05T02:41:37.396Z,10.62
2022-11-05T02:44:56.547Z,10.67
2022-11-05T02:48:15.255Z,10.70
2022-11-05T02:51:34.636Z,10.71
2022-11-05T02:54:52.533Z,10.70
2022-11-05T02:58:06.421Z,10.73
2022-11-05T03:01:19.346Z,10.75
2022-11-05T03:04:33.010Z,10.77
2022-11-05T03:07:53.930Z,10.81
2022-11-05T03:11:10.455Z,10.79
2022-11-05T03:14:29.262Z,10.84
2022-11-05T03:17:48.481Z,10.73
2022-11-05T03:21:07.615Z,10.71
2022-11-05T03:24:23.622Z,10.64
2022-11-05T03:27:41.525Z,10.57
2022-11-05T03:30:56.085Z,10.58
2022-11-05T03:34:10.489Z,10.49
2022-11-05T03:37:24.730Z,10.50
2022-11-05T03:40:40.470Z,10.45
2022-11-05T03:43:56.487Z,10.43
2022-11-05T03:47:13.383Z,10.40
2022-11-05T03:50:34.775Z,10.33
2022-11-05T03:53:50.965Z,10.19
2022-11-05T03:57:09.937Z,10.15
2022-11-05T04:00:23.455Z,10.06
2022-11-05T04:03:36.725Z,10.03
2022-11-05T04:07:03.072Z,9.96
2022-11-05T04:10:32.746Z,9.99
2022-11-05T04:13:44.786Z,10.00
2022-11-05T04:17:12.711Z,10.00
2022-11-05T04:20:37.598Z,9.96
2022-11-05T04:24:03.945Z,9.91
2022-11-05T04:27:16.318Z,9.91
2022-11-05T04:30:28.706Z,9.90
2022-11-05T04:33:40.915Z,9.90
2022-11-05T04:36:53.275Z,9.75
2022-11-05T04:40:05.451Z,9.85
2022-11-05T04:43:21.013Z,9.85
2022-11-05T04:46:33.707Z,9.75
2022-11-05T04:49:45.938Z,9.86
2022-11-05T04:52:58.153Z,9.66
2022-11-05T04:56:19.782Z,9.79
2022-11-05T04:59:31.973Z,9.83
2022-11-05T05:02:45.549Z,9.82
2022-11-05T05:06:03.381Z,9.83
2022-11-05T05:09:12.192Z,9.83
2022-11-05T05:12:24.735Z,9.85
2022-11-05T05:15:37.331Z,9.89
2022-11-05T05:18:49.884Z,9.85
2022-11-05T05:22:02.181Z,9.89
2022-11-05T05:25:15.285Z,9.91
2022-11-05T05:28:27.559Z,9.89
2022-11-05T05:31:40.327Z,9.87
2022-11-05T05:34:52.485Z,9.84
2022-11-05T05:38:04.994Z,9.83
2022-11-05T05:41:17.461Z,9.81
2022-11-05T05:44:30.082Z,9.82
2022-11-05T05:47:42.495Z,9.75
2022-11-05T05:50:54.746Z,9.81
2022-11-05T05:54:07.057Z,9.79
2022-11-05T05:57:19.350Z,9.80
2022-11-05T06:00:31.731Z,9.78
2022-11-05T06:03:44.505Z,9.74
2022-11-05T06:06:56.868Z,9.71
2022-11-05T06:10:10.297Z,9.69
2022-11-05T06:13:22.660Z,9.67
2022-11-05T06:16:36.262Z,9.61
2022-11-05T06:19:48.517Z,9.60
2022-11-05T06:23:04.193Z,9.59
2022-11-05T06:26:18.766Z,9.56
2022-11-05T06:29:31.085Z,9.51
2022-11-05T06:32:43.471Z,9.54
2022-11-05T06:35:55.775Z,9.51
2022-11-05T06:39:08.291Z,9.50
2022-11-05T06:42:20.484Z,9.45
2022-11-05T06:45:32.814Z,9.46
2022-11-05T06:48:45.630Z,9.52
2022-11-05T06:51:58.101Z,9.46
2022-11-05T06:55:11.816Z,9.43
2022-11-05T06:58:24.535Z,9.44
2022-11-05T07:01:37.504Z,9.39
2022-11-05T07:04:50.046Z,9.38
2022-11-05T07:08:02.896Z,9.28
2022-11-05T07:11:15.165Z,9.31
2022-11-05T07:14:27.735Z,9.24
2022-11-05T07:17:40.077Z,9.26
2022-11-05T07:20:52.409Z,9.29
2022-11-05T07:24:04.794Z,9.23
2022-11-05T07:27:17.276Z,9.22
2022-11-05T07:30:29.607Z,9.23
2022-11-05T07:33:41.901Z,9.24
2022-11-05T07:36:54.277Z,9.17
2022-11-05T07:40:06.693Z,9.09
2022-11-05T07:43:19.140Z,9.05
2022-11-05T07:46:31.413Z,9.00
2022-11-05T07:49:43.798Z,9.03
2022-11-05T07:52:56.636Z,9.00
2022-11-05T07:56:09.479Z,8.98
2022-11-05T07:59:24.661Z,8.73
2022-11-05T08:02:37.393Z,8.95
2022-11-05T08:05:53.065Z,8.92
2022-11-05T08:09:05.733Z,9.02
2022-11-05T08:12:18.300Z,9.01
2022-11-05T08:15:31.373Z,8.76
2022-11-05T08:18:44.704Z,9.03
2022-11-05T08:21:57.331Z,9.08
2022-11-05T08:25:10.523Z,9.07
2022-11-05T08:28:24.094Z,9.03
2022-11-05T08:31:37.267Z,9.12
2022-11-05T08:34:49.487Z,9.17
2022-11-05T08:38:06.157Z,9.13
2022-11-05T08:41:18.421Z,9.01
2022-11-05T08:44:30.806Z,9.03
2022-11-05T08:47:43.506Z,9.05
2022-11-05T08:50:56.654Z,8.96
2022-11-05T08:54:09.479Z,9.02
2022-11-05T08:57:21.792Z,9.04
2022-11-05T09:00:36.705Z,8.97
2022-11-05T09:03:49.089Z,8.95
2022-11-05T09:07:01.471Z,9.00
2022-11-05T09:10:15.753Z,9.07
2022-11-05T09:13:28.922Z,9.04
2022-11-05T09:16:41.630Z,9.03
2022-11-05T09:19:55.121Z,9.10
2022-11-05T09:23:08.067Z,9.04
2022-11-05T09:26:21.067Z,9.13
2022-11-05T09:29:34.875Z,9.11
2022-11-05T09:32:48.307Z,9.11
2022-11-05T09:36:03.130Z,9.09
2022-11-05T09:39:15.933Z,9.14
2022-11-05T09:42:33.614Z,9.12
2022-11-05T09:45:46.212Z,9.10
2022-11-05T09:49:04.339Z,9.15
2022-11-05T09:52:23.206Z,9.16
2022-11-05T09:55:40.930Z,9.13
2022-11-05T09:58:58.225Z,9.16
2022-11-05T10:02:18.044Z,9.22
2022-11-05T10:05:32.479Z,9.20
2022-11-05T10:08:48.692Z,9.24
2022-11-05T10:12:06.387Z,9.22
2022-11-05T10:15:23.793Z,9.13
2022-11-05T10:18:40.897Z,9.28
2022-11-05T10:22:06.279Z,9.08
2022-11-05T10:25:10.372Z,9.22
2022-11-05T10:28:26.792Z,9.19
2022-11-05T10:31:42.155Z,9.17
2022-11-05T10:34:55.814Z,9.23
2022-11-05T10:38:08.918Z,9.26
2022-11-05T10:41:40.254Z,9.29
2022-11-05T10:44:57.932Z,9.23
2022-11-05T10:48:43.970Z,9.26
2022-11-05T10:52:02.276Z,9.27
2022-11-05T10:55:23.481Z,9.20
2022-11-05T10:58:39.838Z,9.30
2022-11-05T11:01:52.583Z,9.38
2022-11-05T11:05:05.509Z,9.37
2022-11-05T11:08:30.682Z,9.40
2022-11-05T11:11:46.250Z,9.41
2022-11-05T11:15:16.248Z,9.51
2022-11-05T11:18:40.427Z,9.49
2022-11-05T11:21:53.699Z,9.48
2022-11-05T11:25:06.180Z,9.43
2022-11-05T11:28:27.499Z,9.23
2022-11-05T11:31:44.125Z,9.41
2022-11-05T11:35:01.164Z,9.46
2022-11-05T11:38:15.563Z,9.42
2022-11-05T11:41:37.467Z,9.43
2022-11-05T11:44:52.958Z,9.22
2022-11-05T11:48:08.781Z,9.43
2022-11-05T11:51:36.756Z,9.32
2022-11-05T11:54:49.222Z,9.42
2022-11-05T12:01:38.609Z,9.45
2022-11-05T12:05:31.564Z,9.53
2022-11-05T12:09:01.812Z,9.53
2022-11-05T12:12:14.547Z,9.47
2022-11-05T12:15:40.518Z,9.57
2022-11-05T12:18:58.135Z,9.53
2022-11-05T12:22:17.702Z,9.51
2022-11-05T12:25:37.310Z,9.52
2022-11-05T12:29:18.779Z,9.59
2022-11-05T12:32:47.848Z,9.50
2022-11-05T12:36:14.567Z,9.59
2022-11-05T12:40:13.811Z,9.59
2022-11-05T12:43:36.150Z,9.59
2022-11-05T12:46:56.627Z,9.58
2022-11-05T12:50:21.615Z,9.54
2022-11-05T12:54:13.921Z,9.64
2022-11-05T12:57:29.479Z,9.63
2022-11-05T13:00:43.981Z,9.69
2022-11-05T13:04:02.161Z,9.71
2022-11-05T13:07:19.605Z,9.74
2022-11-05T13:10:39.068Z,9.63
2022-11-05T13:13:59.901Z,9.65
2022-11-05T13:17:18.386Z,9.67
2022-11-05T13:20:36.162Z,9.71
2022-11-05T13:23:54.359Z,9.68
2022-11-05T13:27:12.920Z,9.55
2022-11-05T13:30:29.200Z,9.63
2022-11-05T13:33:44.773Z,9.59
2022-11-05T13:37:17.596Z,9.63
2022-11-05T13:40:40.027Z,9.63
2022-11-05T13:44:24.028Z,9.66
2022-11-05T13:48:10.848Z,9.61
2022-11-05T13:51:51.899Z,9.61
2022-11-05T13:55:32.671Z,9.59
2022-11-05T13:59:05.229Z,9.62
2022-11-05T14:02:25.109Z,9.52
2022-11-05T14:05:42.685Z,9.65
2022-11-05T14:08:55.253Z,9.59
2022-11-05T14:12:09.082Z,9.63
2022-11-05T14:15:28.558Z,9.51
2022-11-05T14:18:48.295Z,9.66
2022-11-05T14:22:02.439Z,9.65
2022-11-05T14:25:57.466Z,9.60
2022-11-05T14:29:30.082Z,9.60
2022-11-05T14:32:55.036Z,9.59
2022-11-05T14:36:46.232Z,9.60
2022-11-05T14:39:59.785Z,9.64
2022-11-05T14:43:22.425Z,9.61
2022-11-05T14:46:48.085Z,9.63
2022-11-05T14:50:05.266Z,9.58
2022-11-05T14:53:34.731Z,9.61
2022-11-05T14:56:56.342Z,9.58
2022-11-05T15:00:08.260Z,9.58
2022-11-05T15:04:10.433Z,9.55
2022-11-05T15:07:43.485Z,9.57
2022-11-05T15:10:56.711Z,9.54
2022-11-05T15:14:17.366Z,9.58
2022-11-05T15:17:33.282Z,9.58
2022-11-05T15:20:50.002Z,9.49
2022-11-05T15:24:04.421Z,9.57
2022-11-05T15:27:23.925Z,9.56
2022-11-05T15:30:36.510Z,9.54
2022-11-05T15:33:51.045Z,9.57
2022-11-05T15:37:07.161Z,9.58
2022-11-05T15:40:32.666Z,9.59
2022-11-05T15:43:50.584Z,9.57
2022-11-05T15:47:23.512Z,9.57
2022-11-05T15:50:36.029Z,9.61
2022-11-05T15:57:32.237Z,9.56
2022-11-05T16:00:44.856Z,9.60
2022-11-05T16:03:59.405Z,9.60
2022-11-05T16:07:17.910Z,9.54
2022-11-05T16:10:35.347Z,9.58
2022-11-05T16:13:48.547Z,9.66
2022-11-05T16:17:00.899Z,9.67
2022-11-05T16:20:28.822Z,9.68
2022-11-05T16:23:58.979Z,9.63
2022-11-05T16:27:19.709Z,9.63
2022-11-05T16:30:32.332Z,9.60
2022-11-05T16:33:49.322Z,9.63
2022-11-05T16:37:04.291Z,9.60
2022-11-05T16:40:23.938Z,9.56
2022-11-05T16:43:36.851Z,9.55
2022-11-05T16:46:53.631Z,9.54
2022-11-05T16:50:06.088Z,9.58
2022-11-05T16:53:18.396Z,9.57
2022-11-05T16:56:31.181Z,9.58
2022-11-05T16:59:43.327Z,9.56
2022-11-05T17:02:56.762Z,9.59
2022-11-05T17:06:09.756Z,9.50
2022-11-05T17:09:22.548Z,9.51
2022-11-05T17:12:35.829Z,9.42
2022-11-05T17:15:50.312Z,9.45
2022-11-05T17:19:02.994Z,9.44
2022-11-05T17:22:15.839Z,9.41
2022-11-05T17:25:28.814Z,9.45
2022-11-05T17:28:42.281Z,9.49
2022-11-05T17:31:55.181Z,9.48
2022-11-05T17:35:07.776Z,9.49
2022-11-05T17:38:20.431Z,9.47
2022-11-05T17:41:32.921Z,9.49
2022-11-05T17:44:46.409Z,9.35
2022-11-05T17:48:01.106Z,9.48
2022-11-05T17:51:18.618Z,9.44
2022-11-05T17:54:31.555Z,9.31
2022-11-05T17:57:43.949Z,9.28
2022-11-05T18:00:57.059Z,9.28
2022-11-05T18:04:10.020Z,9.43
2022-11-05T18:07:23.851Z,9.41
2022-11-05T18:10:37.091Z,9.46
2022-11-05T18:13:51.469Z,9.42
2022-11-05T18:17:04.480Z,9.40
2022-11-05T18:20:21.026Z,9.42
2022-11-05T18:23:34.067Z,9.40
2022-11-05T18:26:46.665Z,9.37
2022-11-05T18:29:59.504Z,9.37
2022-11-05T18:33:12.531Z,9.40
2022-11-05T18:36:30.830Z,9.35
2022-11-05T18:39:43.289Z,9.31
2022-11-05T18:42:55.899Z,9.34
2022-11-05T18:46:08.939Z,9.32
2022-11-05T18:49:21.799Z,9.24
2022-11-05T18:52:34.414Z,9.28
2022-11-05T18:55:48.119Z,9.30
2022-11-05T18:59:29.949Z,9.25
2022-11-05T19:02:17.430Z,9.28
2022-11-05T19:05:30.679Z,9.25
2022-11-05T19:08:44.268Z,9.29
2022-11-05T19:11:57.239Z,9.30
2022-11-05T19:15:10.687Z,9.30
2022-11-05T19:18:23.242Z,9.29
2022-11-05T19:21:36.714Z,9.24
2022-11-05T19:24:49.229Z,9.30
2022-11-05T19:28:02.946Z,9.28
2022-11-05T19:31:17.225Z,9.35
2022-11-05T19:34:30.179Z,9.33
2022-11-05T19:37:42.781Z,9.27
2022-11-05T19:40:56.021Z,9.28
2022-11-05T19:44:08.774Z,9.26
2022-11-05T19:47:21.340Z,9.30
2022-11-05T19:50:34.236Z,9.31
2022-11-05T19:53:47.835Z,9.30
2022-11-05T19:57:00.716Z,9.27
2022-11-05T20:00:16.872Z,9.28
2022-11-05T20:03:29.642Z,9.29
2022-11-05T20:06:44.723Z,9.30
2022-11-05T20:10:00.678Z,9.01
2022-11-05T20:13:18.546Z,9.30
2022-11-05T20:16:32.194Z,9.28
2022-11-05T20:19:45.156Z,9.29
2022-11-05T20:22:59.254Z,9.30
2022-11-05T20:26:13.366Z,9.32
2022-11-05T20:29:30.558Z,9.29
2022-11-05T20:32:40.707Z,9.29
2022-11-05T20:35:53.866Z,9.30
2022-11-05T20:39:06.845Z,9.23
2022-11-05T20:42:19.332Z,9.25
2022-11-05T20:45:31.629Z,9.20
2022-11-05T20:48:44.311Z,9.21
2022-11-05T20:51:57.393Z,9.24
2022-11-05T20:55:10.731Z,9.25
2022-11-05T20:58:24.136Z,9.13
2022-11-05T21:01:39.251Z,9.23
2022-11-05T21:04:52.018Z,9.20
2022-11-05T21:08:04.902Z,9.26
2022-11-05T21:11:18.110Z,9.22
2022-11-05T21:14:30.436Z,9.21
2022-11-05T21:17:44.957Z,9.25
2022-11-05T21:20:59.825Z,9.24
2022-11-05T21:24:13.837Z,9.20
2022-11-05T21:27:26.674Z,9.25
2022-11-05T21:30:41.556Z,9.25
2022-11-05T21:33:55.389Z,9.26
2022-11-05T21:37:07.909Z,9.28
2022-11-05T21:40:21.132Z,9.25
2022-11-05T21:43:33.503Z,9.25
2022-11-05T21:46:45.933Z,9.25
2022-11-05T21:49:59.410Z,9.06
2022-11-05T21:53:26.915Z,9.23
2022-11-05T21:56:52.065Z,9.27
2022-11-05T22:00:05.922Z,9.27
2022-11-05T22:03:18.345Z,9.25
2022-11-05T22:06:31.151Z,9.24
2022-11-05T22:09:44.223Z,9.24
2022-11-05T22:12:56.486Z,9.23
2022-11-05T22:16:09.682Z,9.25
2022-11-05T22:19:22.549Z,9.24
2022-11-05T22:22:35.319Z,9.22
2022-11-05T22:25:47.849Z,9.23
2022-11-05T22:29:02.236Z,9.20
2022-11-05T22:32:15.468Z,9.18
2022-11-05T22:35:28.085Z,9.19
2022-11-05T22:38:40.731Z,9.19
2022-11-05T22:41:53.830Z,9.19
2022-11-05T22:45:06.613Z,9.14
2022-11-05T22:48:18.977Z,9.19
2022-11-05T22:51:33.928Z,9.01
2022-11-05T22:54:47.722Z,9.11
2022-11-05T22:58:00.106Z,9.06
2022-11-05T23:01:15.739Z,9.04
2022-11-05T23:04:28.364Z,9.03
2022-11-05T23:07:55.044Z,9.02
2022-11-05T23:11:23.868Z,8.97
2022-11-05T23:14:36.321Z,9.00
2022-11-05T23:18:03.206Z,8.98
2022-11-05T23:21:29.899Z,8.99
2022-11-05T23:24:42.156Z,8.95
2022-11-05T23:27:58.506Z,8.96
2022-11-05T23:31:28.448Z,8.95
2022-11-05T23:34:41.170Z,8.98
2022-11-05T23:38:16.287Z,8.97
2022-11-05T23:41:42.964Z,8.96
2022-11-05T23:45:14.173Z,8.96
2022-11-05T23:48:29.799Z,8.96
2022-11-05T23:51:41.881Z,8.89
2022-11-05T23:54:56.701Z,8.97
2022-11-05T23:58:08.908Z,8.98
